Time;durP1;ratioP1;P1;durP2;ratioP2;P2;SDS_P1;SDS_P2;PMS_P1;PMS_P2;Temp;Humidity;BMP_temperature;BMP_pressure;BME280_temperature;BME280_humidity;BME280_pressure;Samples;Min_cycle;Max_cycle;Signal;HPM_P1;HPM_P2
2022/03/30 00:01:48;;;;;;;2.45;1.55;;;18.70;47.80;;;;;;6170207;23;20605;-84
2022/03/30 00:04:14;;;;;;;1.90;1.20;;;18.70;48.30;;;;;;6145921;23;20509;-84
2022/03/30 00:06:41;;;;;;;1.73;1.40;;;18.60;47.40;;;;;;6247195;23;20554;-83
2022/03/30 00:09:08;;;;;;;2.40;1.25;;;18.60;48.00;;;;;;6145248;23;20150;-85
2022/03/30 00:11:38;;;;;;;1.75;1.20;;;18.60;47.90;;;;;;6169861;23;20232;-84
2022/03/30 00:14:08;;;;;;;2.92;1.40;;;18.60;47.90;;;;;;6145386;23;20607;-84
2022/03/30 00:16:35;;;;;;;2.15;1.35;;;18.60;47.60;;;;;;6120499;23;20535;-85
2022/03/30 00:19:02;;;;;;;1.50;1.30;;;18.60;48.00;;;;;;6121055;23;20264;-86
2022/03/30 00:21:32;;;;;;;4.32;1.67;;;18.60;47.90;;;;;;6145581;23;20532;-87
2022/03/30 00:23:59;;;;;;;3.33;1.50;;;18.60;48.00;;;;;;6145351;23;20475;-84
2022/03/30 00:26:26;;;;;;;2.50;1.15;;;18.60;48.00;;;;;;6169957;23;20231;-83
2022/03/30 00:28:53;;;;;;;2.65;1.23;;;18.60;48.30;;;;;;6145262;23;20153;-83
2022/03/30 00:31:20;;;;;;;4.70;1.40;;;18.60;48.20;;;;;;6169711;23;20157;-84
2022/03/30 00:33:46;;;;;;;3.53;1.50;;;18.60;48.00;;;;;;6169284;23;20153;-84
2022/03/30 00:36:14;;;;;;;2.58;1.10;;;18.50;48.00;;;;;;6220388;23;20130;-85
2022/03/30 00:38:41;;;;;;;2.38;1.30;;;18.60;47.90;;;;;;6170289;23;20154;-84
2022/03/30 00:41:11;;;;;;;3.30;1.45;;;18.50;47.80;;;;;;6145037;23;20176;-84
2022/03/30 00:43:38;;;;;;;2.60;1.23;;;18.60;47.90;;;;;;6169633;23;20476;-87
2022/03/30 00:46:09;;;;;;;2.88;1.60;;;18.60;47.80;;;;;;6119998;23;20150;-84
2022/03/30 00:48:36;;;;;;;4.05;1.40;;;18.60;48.20;;;;;;6146047;23;20153;-84
2022/03/30 00:51:03;;;;;;;3.70;1.52;;;18.50;47.90;;;;;;6144800;23;20146;-86
2022/03/30 00:53:30;;;;;;;1.88;1.00;;;18.60;47.70;;;;;;6169212;23;20581;-84
2022/03/30 00:55:55;;;;;;;2.55;1.20;;;18.60;47.70;;;;;;6144569;23;20680;-85
2022/03/30 00:58:22;;;;;;;2.67;1.20;;;18.60;47.70;;;;;;6220623;23;20188;-86
2022/03/30 01:00:48;;;;;;;4.03;1.40;;;18.60;47.80;;;;;;6220108;23;20153;-85
2022/03/30 01:03:13;;;;;;;3.42;1.40;;;18.60;47.70;;;;;;6195071;23;20220;-85
2022/03/30 01:05:39;;;;;;;2.75;1.30;;;18.50;48.00;;;;;;6194761;23;20652;-86
2022/03/30 01:08:05;;;;;;;1.85;1.27;;;18.50;48.30;;;;;;6219750;23;20585;-83
2022/03/30 01:10:31;;;;;;;1.83;1.30;;;18.50;48.30;;;;;;6220487;23;20616;-87
2022/03/30 01:12:59;;;;;;;2.67;1.40;;;18.50;48.00;;;;;;6144726;23;20640;-85
2022/03/30 01:15:24;;;;;;;3.03;1.40;;;18.50;48.70;;;;;;6219611;23;20498;-84
2022/03/30 01:17:50;;;;;;;2.38;1.30;;;18.60;47.60;;;;;;6220281;23;20152;-85
2022/03/30 01:20:21;;;;;;;2.17;1.20;;;18.50;47.60;;;;;;6219980;23;20140;-84
2022/03/30 01:22:47;;;;;;;2.35;1.27;;;18.50;48.00;;;;;;6219617;23;20152;-84
2022/03/30 01:25:13;;;;;;;2.15;1.50;;;18.60;48.00;;;;;;6219743;23;20153;-88
2022/03/30 01:27:39;;;;;;;2.65;1.23;;;18.50;48.70;;;;;;6219479;23;20145;-84
2022/03/30 01:32:51;;;;;;;2.80;1.23;;;18.40;47.70;;;;;;6223071;23;20133;-83
2022/03/30 01:35:17;;;;;;;1.75;1.30;;;18.40;48.10;;;;;;6246454;23;20501;-85
2022/03/30 01:37:44;;;;;;;1.60;1.20;;;18.30;48.70;;;;;;6194536;23;20152;-85
2022/03/30 01:40:10;;;;;;;1.70;1.27;;;18.40;48.10;;;;;;6219791;23;20130;-84
2022/03/30 01:42:36;;;;;;;3.22;1.27;;;18.40;48.60;;;;;;6219815;23;20141;-85
2022/03/30 01:45:03;;;;;;;4.05;1.50;;;18.50;47.70;;;;;;6219740;23;20234;-83
2022/03/30 01:47:34;;;;;;;1.45;1.30;;;18.40;48.00;;;;;;6220020;23;20133;-83
2022/03/30 01:50:03;;;;;;;1.75;1.20;;;18.40;47.90;;;;;;6169940;23;20239;-84
2022/03/30 01:52:31;;;;;;;3.85;1.20;;;18.40;47.90;;;;;;6168999;23;20187;-83
2022/03/30 01:55:00;;;;;;;3.33;1.42;;;18.40;47.60;;;;;;6169059;23;20164;-84
2022/03/30 01:57:28;;;;;;;2.78;1.35;;;18.40;47.80;;;;;;6119791;23;20232;-86
2022/03/30 01:59:57;;;;;;;1.85;1.15;;;18.40;48.30;;;;;;6144067;23;20211;-84
2022/03/30 02:02:27;;;;;;;2.22;1.40;;;18.40;48.10;;;;;;6169962;23;20160;-85
2022/03/30 02:04:54;;;;;;;2.85;1.40;;;18.40;48.50;;;;;;6169020;23;20185;-85
2022/03/30 02:07:21;;;;;;;2.80;1.40;;;18.40;48.50;;;;;;6144122;23;20224;-86
2022/03/30 02:09:48;;;;;;;2.65;1.40;;;18.30;47.80;;;;;;6168997;23;20159;-85
2022/03/30 02:12:18;;;;;;;2.03;1.33;;;18.30;48.20;;;;;;6143922;23;20156;-83
2022/03/30 02:14:44;;;;;;;3.33;1.38;;;18.40;48.20;;;;;;6169053;23;20220;-87
2022/03/30 02:17:11;;;;;;;1.75;1.17;;;18.40;48.30;;;;;;6219451;23;20136;-86
2022/03/30 02:19:38;;;;;;;2.85;1.20;;;18.30;48.20;;;;;;6168550;23;20161;-84
2022/03/30 02:22:05;;;;;;;2.03;1.30;;;18.30;47.70;;;;;;6144319;23;20145;-85
2022/03/30 02:24:32;;;;;;;2.70;1.52;;;18.30;48.50;;;;;;6118873;23;20181;-86
2022/03/30 02:26:58;;;;;;;2.42;1.23;;;18.30;48.80;;;;;;6143752;23;20153;-86
2022/03/30 02:29:24;;;;;;;1.73;1.02;;;18.30;47.80;;;;;;6143803;23;20520;-87
2022/03/30 02:31:51;;;;;;;2.25;1.33;;;18.30;48.70;;;;;;6219087;23;20141;-88
2022/03/30 02:34:18;;;;;;;4.18;1.30;;;18.30;48.30;;;;;;6219312;23;20163;-85
2022/03/30 02:36:45;;;;;;;2.78;1.42;;;18.30;48.30;;;;;;6168868;23;20181;-84
2022/03/30 02:39:12;;;;;;;1.23;1.10;;;18.30;48.40;;;;;;6195657;23;20480;-87
2022/03/30 02:41:37;;;;;;;3.08;1.38;;;18.30;47.70;;;;;;6171175;23;20607;-84
2022/03/30 02:44:05;;;;;;;2.28;1.20;;;18.30;48.40;;;;;;6219543;23;20172;-84
2022/03/30 02:46:32;;;;;;;2.55;1.15;;;18.20;48.30;;;;;;6145664;23;20228;-86
2022/03/30 02:48:59;;;;;;;1.92;1.35;;;18.20;48.60;;;;;;6170039;23;20153;-85
2022/03/30 02:51:29;;;;;;;2.88;1.35;;;18.30;48.40;;;;;;6121068;23;20148;-84
2022/03/30 02:53:56;;;;;;;1.20;1.10;;;18.30;48.00;;;;;;6144779;23;20157;-83
2022/03/30 02:56:23;;;;;;;2.58;1.42;;;18.30;48.50;;;;;;6144232;23;20157;-87
2022/03/30 02:58:48;;;;;;;1.90;1.20;;;18.20;48.50;;;;;;6144167;23;20184;-86
2022/03/30 03:01:19;;;;;;;2.35;1.20;;;18.20;47.90;;;;;;6194159;23;20570;-84
2022/03/30 03:03:49;;;;;;;3.10;1.38;;;18.30;48.00;;;;;;6168478;23;20153;-85
2022/03/30 03:06:19;;;;;;;2.58;1.05;;;18.30;48.00;;;;;;6119542;23;20223;-85
2022/03/30 03:08:45;;;;;;;2.35;1.15;;;18.30;48.30;;;;;;6169275;23;20231;-86
2022/03/30 03:11:11;;;;;;;1.65;1.10;;;18.30;47.60;;;;;;6221078;23;20183;-85
2022/03/30 03:13:37;;;;;;;2.45;1.48;;;18.30;48.20;;;;;;6248131;23;20130;-84
2022/03/30 03:16:03;;;;;;;3.90;1.52;;;18.30;47.80;;;;;;6220856;23;20193;-86
2022/03/30 03:18:29;;;;;;;2.30;1.20;;;18.30;47.50;;;;;;6247652;23;20162;-84
2022/03/30 03:20:55;;;;;;;1.48;1.20;;;18.30;48.10;;;;;;6247945;23;20142;-86
2022/03/30 03:23:21;;;;;;;2.55;1.30;;;18.30;47.60;;;;;;6247749;23;20129;-85
2022/03/30 03:25:47;;;;;;;3.03;1.60;;;18.30;48.10;;;;;;6247624;23;20245;-85
2022/03/30 03:28:13;;;;;;;2.13;1.40;;;18.20;48.70;;;;;;6248388;23;20138;-87
2022/03/30 03:30:39;;;;;;;1.90;1.30;;;18.20;48.50;;;;;;6247688;23;20133;-85
2022/03/30 03:33:09;;;;;;;2.47;1.10;;;18.30;48.20;;;;;;6221326;23;20519;-85
2022/03/30 03:35:35;;;;;;;1.55;1.10;;;18.30;47.70;;;;;;6146489;23;20236;-85
2022/03/30 03:38:01;;;;;;;2.25;1.30;;;18.20;48.20;;;;;;6220716;23;20600;-86
2022/03/30 03:40:27;;;;;;;2.30;1.20;;;18.20;47.90;;;;;;6220714;23;20198;-86
2022/03/30 03:42:54;;;;;;;1.38;1.10;;;18.20;48.80;;;;;;6247821;23;20145;-83
2022/03/30 03:45:21;;;;;;;2.67;1.42;;;18.20;47.60;;;;;;6145395;23;20213;-86
2022/03/30 03:47:48;;;;;;;3.03;1.42;;;18.30;47.50;;;;;;6170323;23;20600;-85
2022/03/30 03:50:15;;;;;;;2.03;0.88;;;18.30;47.90;;;;;;6170289;23;20535;-83
2022/03/30 03:52:41;;;;;;;1.50;1.20;;;18.20;47.90;;;;;;6121358;23;20150;-86
2022/03/30 03:55:11;;;;;;;3.75;1.40;;;18.20;48.00;;;;;;6220936;23;20134;-84
2022/03/30 03:57:42;;;;;;;2.30;1.30;;;18.20;47.70;;;;;;6170412;23;20154;-86
2022/03/30 04:00:13;;;;;;;2.05;1.20;;;18.20;48.00;;;;;;6145709;23;20157;-85
2022/03/30 04:02:40;;;;;;;2.78;1.38;;;18.20;47.70;;;;;;6146395;23;20593;-87
2022/03/30 04:05:08;;;;;;;1.48;0.95;;;18.20;48.60;;;;;;6220455;23;20188;-86
2022/03/30 04:07:40;;;;;;;2.55;1.30;;;18.20;48.20;;;;;;6220258;23;20148;-85
2022/03/30 04:10:06;;;;;;;2.15;1.30;;;18.10;48.10;;;;;;6120849;23;20164;-83
2022/03/30 04:12:32;;;;;;;5.15;1.65;;;18.10;48.30;;;;;;6220662;23;20142;-84
2022/03/30 04:14:58;;;;;;;1.58;1.20;;;18.20;47.90;;;;;;6246849;23;20190;-84
2022/03/30 04:17:24;;;;;;;1.33;1.00;;;18.20;47.90;;;;;;6220428;23;20133;-84
2022/03/30 04:19:50;;;;;;;2.30;1.20;;;18.20;48.40;;;;;;6220314;23;20161;-86
2022/03/30 04:22:17;;;;;;;2.15;1.23;;;18.10;48.60;;;;;;6220662;23;20180;-88
2022/03/30 04:24:47;;;;;;;2.70;1.15;;;18.10;47.80;;;;;;6220136;23;20554;-85
2022/03/30 04:27:13;;;;;;;1.88;1.10;;;18.10;48.50;;;;;;6120979;23;20581;-85
2022/03/30 04:29:38;;;;;;;2.92;1.17;;;18.10;47.90;;;;;;6247679;23;20130;-87
2022/03/30 04:32:04;;;;;;;2.25;1.40;;;18.10;47.60;;;;;;6247071;23;20130;-83
2022/03/30 04:34:30;;;;;;;2.15;1.05;;;18.10;47.80;;;;;;6246886;23;20133;-86
2022/03/30 04:36:56;;;;;;;2.45;1.15;;;18.10;48.00;;;;;;6220246;23;20182;-83
2022/03/30 04:39:22;;;;;;;1.85;1.30;;;18.10;48.40;;;;;;6220116;23;20596;-86
2022/03/30 04:41:48;;;;;;;2.88;1.30;;;18.10;48.40;;;;;;6247198;23;20497;-84
2022/03/30 04:44:14;;;;;;;2.65;1.38;;;18.00;48.30;;;;;;6220267;23;20161;-83
2022/03/30 04:46:45;;;;;;;1.38;1.25;;;18.10;47.70;;;;;;6246819;23;20133;-86
2022/03/30 04:49:11;;;;;;;1.75;1.15;;;18.10;48.10;;;;;;6145101;23;20482;-88
2022/03/30 04:51:37;;;;;;;1.88;1.15;;;18.00;48.40;;;;;;6220178;23;20141;-84
2022/03/30 04:54:03;;;;;;;1.33;0.90;;;18.00;48.30;;;;;;6220078;23;20160;-85
2022/03/30 04:56:29;;;;;;;2.45;1.30;;;18.00;48.50;;;;;;6219978;23;20141;-87
2022/03/30 04:58:55;;;;;;;2.70;1.38;;;18.10;48.30;;;;;;6194690;23;20148;-87
2022/03/30 05:01:24;;;;;;;1.40;1.30;;;18.10;48.30;;;;;;6220765;23;20165;-87
2022/03/30 05:03:50;;;;;;;2.17;1.20;;;18.10;48.10;;;;;;6169582;23;20179;-87
2022/03/30 05:06:16;;;;;;;1.58;1.00;;;18.10;48.00;;;;;;6219817;23;20191;-87
2022/03/30 05:08:42;;;;;;;1.50;1.10;;;18.10;47.90;;;;;;6219835;23;20150;-85
2022/03/30 05:11:08;;;;;;;1.95;1.08;;;18.10;47.40;;;;;;6219822;23;20145;-83
2022/03/30 05:13:38;;;;;;;1.55;1.10;;;18.20;47.50;;;;;;6219951;23;20180;-86
2022/03/30 05:16:08;;;;;;;1.85;0.95;;;18.20;47.70;;;;;;6143909;23;20193;-87
2022/03/30 05:18:34;;;;;;;1.40;1.10;;;18.20;47.50;;;;;;6143680;23;20157;-87
2022/03/30 05:21:00;;;;;;;2.47;1.30;;;18.20;47.70;;;;;;6218367;23;20228;-86
2022/03/30 05:23:29;;;;;;;1.73;1.17;;;18.20;47.60;;;;;;6218801;23;20176;-85
2022/03/30 05:25:59;;;;;;;2.65;1.20;;;18.20;47.70;;;;;;6143223;23;20181;-84
2022/03/30 05:28:25;;;;;;;1.38;1.05;;;18.20;46.70;;;;;;6143819;23;20156;-89
2022/03/30 05:30:55;;;;;;;1.60;1.20;;;18.20;46.90;;;;;;6218679;23;20220;-88
2022/03/30 05:33:21;;;;;;;1.83;1.20;;;18.30;46.90;;;;;;6168201;23;20535;-88
2022/03/30 05:35:51;;;;;;;0.90;0.90;;;18.30;46.30;;;;;;6245806;23;20208;-85
2022/03/30 05:38:17;;;;;;;1.33;1.00;;;18.40;46.00;;;;;;6143931;23;20163;-85
2022/03/30 05:40:47;;;;;;;2.25;1.30;;;18.40;46.20;;;;;;6218587;23;20181;-87
2022/03/30 05:43:14;;;;;;;1.95;1.27;;;18.30;46.50;;;;;;6144147;23;20153;-87
2022/03/30 05:45:47;;;;;;;3.10;1.30;;;18.30;46.50;;;;;;6143615;23;20185;-89
2022/03/30 05:48:15;;;;;;;1.10;1.00;;;18.40;46.60;;;;;;6168352;23;20577;-89
2022/03/30 05:50:45;;;;;;;1.23;0.93;;;18.30;47.00;;;;;;6168527;23;20184;-89
2022/03/30 05:53:14;;;;;;;2.55;1.17;;;18.30;46.10;;;;;;6168397;23;20183;-84
2022/03/30 05:55:42;;;;;;;1.52;1.10;;;18.40;46.00;;;;;;6143902;23;20493;-88
2022/03/30 05:58:13;;;;;;;1.70;1.25;;;18.40;46.00;;;;;;6143703;23;20164;-87
2022/03/30 06:00:43;;;;;;;2.10;1.25;;;18.40;45.50;;;;;;6168272;23;20157;-88
2022/03/30 06:03:10;;;;;;;1.23;0.90;;;18.50;46.10;;;;;;6119322;23;20153;-87
2022/03/30 06:05:41;;;;;;;2.33;1.65;;;18.50;45.60;;;;;;6143269;23;20191;-85
2022/03/30 06:08:09;;;;;;;1.80;0.95;;;18.50;45.60;;;;;;6143633;23;20577;-86
2022/03/30 06:10:39;;;;;;;1.55;1.00;;;18.40;45.70;;;;;;6143937;23;20518;-83
2022/03/30 06:13:09;;;;;;;1.10;0.88;;;18.50;45.80;;;;;;6143992;23;20176;-86
2022/03/30 06:15:37;;;;;;;1.00;0.90;;;18.50;45.10;;;;;;6071035;23;1155345;-87
2022/03/30 06:18:10;;;;;;;1.25;1.13;;;18.60;44.90;;;;;;6247014;23;20145;-86
2022/03/30 06:20:39;;;;;;;1.23;1.00;;;18.60;45.50;;;;;;6152538;23;20150;-87
2022/03/30 06:23:05;;;;;;;1.30;1.00;;;18.60;44.80;;;;;;6247763;23;20191;-87
2022/03/30 06:25:32;;;;;;;4.63;1.05;;;18.60;44.90;;;;;;6219144;23;20161;-86
2022/03/30 06:27:58;;;;;;;1.38;1.10;;;18.60;44.40;;;;;;6245819;23;20569;-86
2022/03/30 06:30:25;;;;;;;1.77;1.10;;;18.70;44.10;;;;;;6219564;23;20137;-81
2022/03/30 06:32:52;;;;;;;1.83;0.98;;;18.60;44.20;;;;;;6219019;23;20152;-86
2022/03/30 06:35:18;;;;;;;1.23;1.00;;;18.70;44.00;;;;;;6219167;23;20183;-85
2022/03/30 06:37:45;;;;;;;2.88;1.08;;;18.70;43.70;;;;;;6169293;23;20557;-86
2022/03/30 06:40:11;;;;;;;2.72;1.10;;;18.70;43.70;;;;;;6219483;23;20138;-83
2022/03/30 06:42:38;;;;;;;2.08;1.10;;;18.80;43.90;;;;;;6246009;23;20130;-83
2022/03/30 06:45:13;;;;;;;2.70;0.95;;;18.80;43.70;;;;;;6220777;23;20229;-85
2022/03/30 06:47:43;;;;;;;2.28;1.00;;;18.80;43.50;;;;;;6173754;23;20145;-85
2022/03/30 06:50:12;;;;;;;3.00;1.27;;;18.80;43.90;;;;;;6222660;23;20137;-87
2022/03/30 06:52:41;;;;;;;1.20;1.05;;;18.80;42.70;;;;;;6227081;23;20137;-86
2022/03/30 06:55:09;;;;;;;2.13;1.00;;;18.70;43.40;;;;;;6152095;23;20153;-86
2022/03/30 06:57:37;;;;;;;4.80;1.02;;;18.80;43.20;;;;;;6148969;23;20199;-86
2022/03/30 07:00:05;;;;;;;2.33;1.08;;;18.80;43.60;;;;;;6125839;23;20161;-85
2022/03/30 07:02:35;;;;;;;2.22;1.10;;;18.80;43.00;;;;;;6177261;23;20153;-85
2022/03/30 07:05:31;;;;;;;1.45;1.08;;;18.70;44.10;;;;;;6154706;23;20656;-83
2022/03/30 07:10:43;;;;;;;2.38;1.10;;;18.90;43.90;;;;;;6185903;23;20157;-83
2022/03/30 07:13:09;;;;;;;5.55;1.10;;;18.80;43.60;;;;;;6224326;23;20146;-85
2022/03/30 07:15:35;;;;;;;1.55;0.70;;;18.90;43.50;;;;;;6198523;23;20244;-83
2022/03/30 07:18:02;;;;;;;1.73;0.90;;;18.90;43.20;;;;;;6198135;23;20709;-84
2022/03/30 07:20:28;;;;;;;1.27;1.02;;;18.90;43.40;;;;;;6148836;23;20191;-82
2022/03/30 07:22:57;;;;;;;2.00;1.00;;;18.90;43.90;;;;;;6200104;23;20130;-84
2022/03/30 07:25:43;;;;;;;2.25;1.10;;;18.80;44.00;;;;;;6224065;23;20173;-85
2022/03/30 07:28:08;;;;;;;1.40;0.93;;;19.00;42.80;;;;;;6187671;23;20170;-84
2022/03/30 07:30:34;;;;;;;1.90;0.98;;;19.00;42.70;;;;;;6137946;23;20196;-85
2022/03/30 07:33:02;;;;;;;1.33;0.93;;;19.00;43.10;;;;;;6162571;23;20615;-84
2022/03/30 07:35:28;;;;;;;1.50;0.98;;;19.00;43.90;;;;;;6139421;23;20178;-83
2022/03/30 07:37:54;;;;;;;0.80;0.80;;;19.00;42.20;;;;;;6139632;23;20151;-84
2022/03/30 07:40:21;;;;;;;1.45;1.10;;;19.00;41.50;;;;;;6116285;23;20185;-83
2022/03/30 07:42:47;;;;;;;2.05;0.77;;;19.00;42.40;;;;;;6141855;23;20155;-83
2022/03/30 07:45:13;;;;;;;2.15;1.00;;;19.00;41.90;;;;;;6163505;23;20162;-85
2022/03/30 07:47:39;;;;;;;2.50;1.10;;;19.00;40.40;;;;;;6163802;23;20249;-84
2022/03/30 07:50:05;;;;;;;2.65;0.90;;;19.00;42.00;;;;;;6139791;23;20147;-82
2022/03/30 07:52:31;;;;;;;2.25;0.90;;;19.00;42.10;;;;;;6163051;23;20245;-83
2022/03/30 07:54:56;;;;;;;1.15;0.88;;;19.00;41.30;;;;;;6138532;23;20146;-83
2022/03/30 07:57:29;;;;;;;1.90;1.10;;;19.00;41.90;;;;;;6163611;23;20170;-84
2022/03/30 07:59:56;;;;;;;1.30;0.90;;;19.10;41.30;;;;;;6214370;23;20636;-83
2022/03/30 08:02:22;;;;;;;1.25;0.90;;;19.00;42.20;;;;;;6198286;23;20573;-82
2022/03/30 08:04:48;;;;;;;1.23;0.90;;;19.00;43.30;;;;;;6198086;23;20169;-82
2022/03/30 08:07:14;;;;;;;1.67;1.10;;;19.00;41.80;;;;;;6222295;23;20203;-83
2022/03/30 08:09:40;;;;;;;1.15;1.00;;;19.00;42.10;;;;;;6222142;23;20146;-85
2022/03/30 08:12:07;;;;;;;2.22;1.00;;;19.00;42.40;;;;;;6221687;23;20133;-85
2022/03/30 08:14:32;;;;;;;2.95;1.10;;;19.00;42.60;;;;;;6196729;23;20142;-84
2022/03/30 08:16:58;;;;;;;1.80;0.90;;;18.90;42.60;;;;;;6195713;23;20556;-85
2022/03/30 08:19:24;;;;;;;2.20;0.80;;;18.90;43.60;;;;;;6196099;23;20192;-83
2022/03/30 08:24:33;;;;;;;2.78;1.00;;;18.80;43.50;;;;;;6226092;23;20172;-83
2022/03/30 08:27:00;;;;;;;1.40;1.10;;;18.80;44.10;;;;;;6174152;23;20152;-84
2022/03/30 08:29:27;;;;;;;1.08;0.70;;;18.90;42.50;;;;;;6199696;23;20130;-84
2022/03/30 08:31:53;;;;;;;0.85;0.85;;;18.90;42.90;;;;;;6200315;23;20153;-85
2022/03/30 08:34:19;;;;;;;3.40;1.00;;;18.90;42.90;;;;;;6199145;23;20161;-83
2022/03/30 08:36:45;;;;;;;1.98;1.00;;;19.00;42.40;;;;;;6223943;23;20431;-82
2022/03/30 08:39:14;;;;;;;1.05;0.80;;;19.00;43.10;;;;;;6221866;23;20565;-84
2022/03/30 08:41:45;;;;;;;0.98;0.82;;;18.90;42.90;;;;;;6147845;23;20172;-84
2022/03/30 08:44:14;;;;;;;1.08;0.80;;;19.00;42.50;;;;;;6172176;23;20177;-83
2022/03/30 08:46:45;;;;;;;1.98;0.90;;;19.00;42.90;;;;;;6221797;23;20260;-84
2022/03/30 08:49:10;;;;;;;3.53;0.98;;;19.00;43.30;;;;;;6177108;23;20150;-84
2022/03/30 08:51:42;;;;;;;1.92;1.00;;;19.00;43.50;;;;;;6199328;23;20133;-84
2022/03/30 08:54:18;;;;;;;0.80;0.80;;;19.00;43.10;;;;;;6126688;23;20263;-83
2022/03/30 08:56:45;;;;;;;1.05;0.75;;;19.00;41.90;;;;;;6203894;23;20175;-85
2022/03/30 08:59:15;;;;;;;1.65;1.08;;;19.10;42.90;;;;;;6174867;23;20149;-85
2022/03/30 09:01:41;;;;;;;1.20;1.02;;;19.10;42.50;;;;;;6175761;23;20181;-83
2022/03/30 09:04:11;;;;;;;1.10;0.80;;;19.10;42.90;;;;;;6225186;23;20172;-85
2022/03/30 09:06:48;;;;;;;1.67;1.00;;;19.10;43.70;;;;;;6175184;23;20149;-83
2022/03/30 09:09:35;;;;;;;2.53;0.90;;;19.00;43.00;;;;;;6199368;23;20130;-85
2022/03/30 09:12:10;;;;;;;2.75;1.00;;;19.10;43.40;;;;;;6106381;23;20155;-84
2022/03/30 09:14:39;;;;;;;2.20;1.10;;;19.10;43.50;;;;;;6122125;23;20177;-85
2022/03/30 09:17:08;;;;;;;2.22;0.88;;;19.10;43.20;;;;;;6199453;23;20133;-88
2022/03/30 09:19:36;;;;;;;2.03;1.05;;;19.00;42.70;;;;;;6171012;23;20620;-82
2022/03/30 09:22:03;;;;;;;2.10;1.05;;;19.00;43.30;;;;;;6223060;23;20359;-86
2022/03/30 09:24:33;;;;;;;1.67;1.00;;;19.00;43.60;;;;;;6174024;23;20185;-85
2022/03/30 09:27:01;;;;;;;1.30;1.00;;;19.00;43.60;;;;;;6171978;23;20581;-84
2022/03/30 09:29:31;;;;;;;1.50;1.33;;;19.10;44.00;;;;;;6198627;23;20130;-84
2022/03/30 09:32:01;;;;;;;2.35;1.00;;;19.00;44.00;;;;;;6173682;23;20149;-87
2022/03/30 09:34:33;;;;;;;1.23;0.95;;;19.00;43.50;;;;;;6199376;23;20145;-89
2022/03/30 09:37:02;;;;;;;1.23;0.80;;;19.00;43.20;;;;;;6148239;23;20157;-86
2022/03/30 09:39:55;;;;;;;3.10;1.10;;;19.00;44.20;;;;;;6147592;23;20639;-84
2022/03/30 09:42:22;;;;;;;1.92;1.00;;;19.00;43.50;;;;;;6194442;23;20228;-86
2022/03/30 09:44:49;;;;;;;0.85;0.82;;;19.00;43.90;;;;;;6190528;23;20221;-88
2022/03/30 09:47:22;;;;;;;1.98;1.10;;;19.10;43.70;;;;;;6165151;23;20647;-84
2022/03/30 09:49:51;;;;;;;1.55;1.00;;;19.00;43.20;;;;;;6165551;23;20153;-86
2022/03/30 09:52:19;;;;;;;1.20;1.10;;;19.10;43.80;;;;;;6164916;23;20665;-83
2022/03/30 09:54:54;;;;;;;1.77;1.00;;;19.10;44.00;;;;;;6165107;23;20196;-82
2022/03/30 09:57:24;;;;;;;1.27;0.93;;;19.10;43.70;;;;;;6190640;23;20145;-82
2022/03/30 10:00:09;;;;;;;3.03;1.10;;;19.10;43.80;;;;;;6190179;23;20313;-84
2022/03/30 10:02:43;;;;;;;1.95;0.90;;;19.10;43.90;;;;;;6216350;23;20269;-86
2022/03/30 10:05:13;;;;;;;1.73;0.80;;;19.10;44.10;;;;;;6143248;23;20290;-83
2022/03/30 10:07:42;;;;;;;1.95;0.85;;;19.10;43.80;;;;;;6166014;23;20158;-86
2022/03/30 10:10:11;;;;;;;1.25;1.00;;;19.10;43.20;;;;;;6141010;23;20154;-83
2022/03/30 10:12:39;;;;;;;1.08;0.90;;;19.10;43.90;;;;;;6140353;23;20608;-84
2022/03/30 10:15:05;;;;;;;1.08;0.98;;;18.90;44.20;;;;;;6172429;23;20200;-85
2022/03/30 10:17:33;;;;;;;0.98;0.80;;;19.00;43.50;;;;;;6196491;23;20145;-84
2022/03/30 10:20:02;;;;;;;1.98;1.05;;;19.00;43.90;;;;;;6146494;23;20159;-85
2022/03/30 10:22:44;;;;;;;2.83;1.10;;;19.00;43.80;;;;;;6146379;23;20214;-84
2022/03/30 10:25:41;;;;;;;1.83;0.80;;;19.10;42.90;;;;;;6195214;23;20180;-85
2022/03/30 10:28:22;;;;;;;1.85;1.05;;;19.10;43.50;;;;;;6133891;23;20207;-85
2022/03/30 10:30:53;;;;;;;2.75;1.13;;;19.10;43.70;;;;;;6171595;23;20184;-85
2022/03/30 10:33:30;;;;;;;1.63;1.23;;;19.00;43.90;;;;;;6145177;23;20149;-83
2022/03/30 10:35:59;;;;;;;1.00;0.90;;;19.00;43.80;;;;;;6146291;23;20586;-83
2022/03/30 10:38:24;;;;;;;1.52;1.00;;;19.00;43.70;;;;;;6170146;23;20153;-86
2022/03/30 10:41:08;;;;;;;1.77;1.10;;;18.90;43.80;;;;;;6170550;23;20152;-84
2022/03/30 10:43:35;;;;;;;0.90;0.85;;;19.00;43.20;;;;;;6246849;23;20161;-84
2022/03/30 10:46:02;;;;;;;2.30;1.05;;;19.00;44.00;;;;;;6144201;23;20638;-83
2022/03/30 10:48:41;;;;;;;1.95;0.93;;;19.00;43.50;;;;;;6194390;23;20150;-84
2022/03/30 10:51:18;;;;;;;1.30;1.02;;;19.00;43.50;;;;;;6218874;23;20133;-86
2022/03/30 10:53:50;;;;;;;1.65;1.08;;;19.00;43.60;;;;;;6219373;23;20232;-86
2022/03/30 10:56:28;;;;;;;2.28;1.10;;;19.00;43.40;;;;;;6144218;23;20240;-84
2022/03/30 10:59:07;;;;;;;1.30;1.13;;;19.00;43.90;;;;;;6219025;23;20228;-84
2022/03/30 11:01:35;;;;;;;3.03;1.10;;;19.00;43.00;;;;;;6169332;23;20535;-82
2022/03/30 11:04:16;;;;;;;1.63;1.00;;;18.90;43.60;;;;;;6169136;23;20484;-85
2022/03/30 11:06:43;;;;;;;1.55;1.20;;;19.00;43.50;;;;;;6125517;23;20153;-82
2022/03/30 11:09:34;;;;;;;2.35;0.98;;;19.00;43.40;;;;;;6219450;23;20138;-84
2022/03/30 11:12:09;;;;;;;3.30;1.05;;;19.00;43.30;;;;;;6167393;23;20282;-85
2022/03/30 11:14:37;;;;;;;2.10;0.98;;;18.90;43.40;;;;;;6136332;23;20154;-84
2022/03/30 11:17:05;;;;;;;9.30;1.67;;;19.00;42.90;;;;;;6158276;23;20159;-84
2022/03/30 11:20:09;;;;;;;14.23;1.92;;;19.00;42.80;;;;;;6134035;23;20189;-83
2022/03/30 11:22:42;;;;;;;13.63;2.05;;;19.00;43.90;;;;;;6162855;23;20154;-85
2022/03/30 11:25:13;;;;;;;11.82;1.83;;;19.00;43.30;;;;;;6135484;23;20186;-87
2022/03/30 11:27:40;;;;;;;13.40;1.95;;;19.00;43.30;;;;;;6109798;23;20147;-83
2022/03/30 11:30:18;;;;;;;10.40;1.65;;;19.00;44.20;;;;;;6134775;23;20157;-84
2022/03/30 11:33:02;;;;;;;12.25;2.05;;;19.00;43.80;;;;;;6161290;23;20150;-82
2022/03/30 11:35:32;;;;;;;6.30;1.27;;;19.00;43.90;;;;;;6161705;23;20180;-88
2022/03/30 11:38:06;;;;;;;4.45;1.10;;;19.00;43.40;;;;;;6136603;23;20154;-86
2022/03/30 11:40:35;;;;;;;7.18;1.30;;;19.00;43.50;;;;;;6135191;23;20151;-85
2022/03/30 11:43:02;;;;;;;3.00;1.35;;;19.00;43.00;;;;;;6193939;23;20157;-86
2022/03/30 11:45:33;;;;;;;4.53;1.20;;;19.00;43.80;;;;;;6221341;23;20165;-85
2022/03/30 11:48:06;;;;;;;5.18;1.50;;;18.90;43.40;;;;;;6146965;23;20196;-86
2022/03/30 11:50:40;;;;;;;8.55;1.65;;;19.00;44.10;;;;;;6152927;23;20176;-83
2022/03/30 11:53:12;;;;;;;3.25;1.20;;;19.00;43.00;;;;;;6116041;23;20183;-86
2022/03/30 11:56:11;;;;;;;5.18;1.20;;;19.00;43.10;;;;;;6137293;23;20506;-88
2022/03/30 11:58:42;;;;;;;6.57;1.40;;;19.00;43.40;;;;;;6143082;23;20155;-88
2022/03/30 12:01:23;;;;;;;3.38;1.15;;;19.00;43.00;;;;;;6139223;23;20142;-89
2022/03/30 12:03:54;;;;;;;4.00;1.33;;;19.10;42.60;;;;;;6137828;23;20154;-89
2022/03/30 12:06:25;;;;;;;4.72;1.05;;;19.20;42.20;;;;;;6145033;23;20193;-85
2022/03/30 12:08:59;;;;;;;3.35;0.90;;;19.10;42.20;;;;;;6138115;23;20150;-86
2022/03/30 12:29:19;;;;;;;3.65;0.93;;;19.10;42.90;;;;;;6270905;22;20196;-89
2022/03/30 12:31:59;;;;;;;2.10;1.30;;;19.10;41.30;;;;;;6176618;23;20240;-87
2022/03/30 12:34:33;;;;;;;3.92;0.90;;;19.10;41.50;;;;;;6156889;23;20585;-83
2022/03/30 12:37:05;;;;;;;1.98;0.90;;;19.10;42.00;;;;;;6180023;23;20538;-87
2022/03/30 12:39:42;;;;;;;5.90;1.20;;;19.10;41.10;;;;;;6151970;23;20200;-83
2022/03/30 12:42:14;;;;;;;2.50;1.05;;;19.20;41.70;;;;;;6132006;23;20667;-84
2022/03/30 12:44:46;;;;;;;2.75;1.20;;;19.20;41.70;;;;;;6183745;23;20173;-85
2022/03/30 12:47:28;;;;;;;2.85;0.90;;;19.20;41.40;;;;;;6180009;23;20133;-87
2022/03/30 12:50:04;;;;;;;1.70;1.05;;;19.30;40.20;;;;;;6160325;23;20209;-87
2022/03/30 12:52:41;;;;;;;3.90;1.17;;;19.30;41.20;;;;;;6159358;23;20149;-84
2022/03/30 12:55:24;;;;;;;1.15;0.90;;;19.30;40.70;;;;;;6158570;23;20160;-85
2022/03/30 12:57:55;;;;;;;5.60;1.17;;;19.30;41.40;;;;;;6232789;23;20174;-84
2022/03/30 13:00:28;;;;;;;3.83;1.45;;;19.20;41.70;;;;;;6155642;23;20153;-87
2022/03/30 13:03:14;;;;;;;3.15;1.25;;;19.30;41.90;;;;;;6152674;23;20221;-87
2022/03/30 13:05:42;;;;;;;6.47;1.20;;;19.20;42.10;;;;;;6252945;23;20664;-87
2022/03/30 13:08:19;;;;;;;4.63;1.20;;;19.20;41.90;;;;;;6202832;23;20569;-85
2022/03/30 13:10:51;;;;;;;6.50;1.35;;;19.10;42.60;;;;;;6209930;23;20159;-85
2022/03/30 13:13:20;;;;;;;7.57;1.83;;;19.10;41.80;;;;;;6187830;23;20142;-85
2022/03/30 13:15:48;;;;;;;4.78;1.30;;;19.20;41.50;;;;;;6188349;23;20523;-85
2022/03/30 13:18:18;;;;;;;4.22;0.90;;;19.20;41.40;;;;;;6211203;23;20206;-83
2022/03/30 13:20:55;;;;;;;5.95;1.30;;;19.20;41.40;;;;;;6212609;23;20165;-84
2022/03/30 13:23:21;;;;;;;1.40;0.70;;;19.20;42.00;;;;;;6187184;23;20156;-85